sensor_id;sensor_type;location;lat;lon;timestamp;temperature;humidity
83553;DHT22;73510;50.866;5.420;2024-03-06T00:02:23;9.10;68.60
83553;DHT22;73510;50.866;5.420;2024-03-06T00:04:48;9.00;68.60
83553;DHT22;73510;50.866;5.420;2024-03-06T00:07:15;9.00;68.70
83553;DHT22;73510;50.866;5.420;2024-03-06T00:09:40;8.90;68.70
83553;DHT22;73510;50.866;5.420;2024-03-06T00:12:06;8.90;68.70
83553;DHT22;73510;50.866;5.420;2024-03-06T00:14:32;8.80;68.70
83553;DHT22;73510;50.866;5.420;2024-03-06T00:16:58;8.70;68.70
83553;DHT22;73510;50.866;5.420;2024-03-06T00:19:23;8.60;68.60
83553;DHT22;73510;50.866;5.420;2024-03-06T00:21:49;8.60;69.00
83553;DHT22;73510;50.866;5.420;2024-03-06T00:24:15;8.50;68.80
83553;DHT22;73510;50.866;5.420;2024-03-06T00:26:44;8.40;69.00
83553;DHT22;73510;50.866;5.420;2024-03-06T00:29:11;8.30;68.90
83553;DHT22;73510;50.866;5.420;2024-03-06T00:31:41;8.30;69.20
83553;DHT22;73510;50.866;5.420;2024-03-06T00:34:07;8.20;69.00
83553;DHT22;73510;50.866;5.420;2024-03-06T00:36:33;8.10;68.80
83553;DHT22;73510;50.866;5.420;2024-03-06T00:38:59;8.00;68.90
83553;DHT22;73510;50.866;5.420;2024-03-06T00:41:24;8.00;69.10
83553;DHT22;73510;50.866;5.420;2024-03-06T00:43:50;8.00;69.40
83553;DHT22;73510;50.866;5.420;2024-03-06T00:46:16;7.80;69.50
83553;DHT22;73510;50.866;5.420;2024-03-06T00:48:42;7.80;69.50
83553;DHT22;73510;50.866;5.420;2024-03-06T00:51:08;7.80;69.00
83553;DHT22;73510;50.866;5.420;2024-03-06T00:53:36;7.80;68.90
83553;DHT22;73510;50.866;5.420;2024-03-06T00:56:02;7.70;68.90
83553;DHT22;73510;50.866;5.420;2024-03-06T00:58:28;7.60;69.10
83553;DHT22;73510;50.866;5.420;2024-03-06T01:00:54;7.50;69.10
83553;DHT22;73510;50.866;5.420;2024-03-06T01:03:20;7.50;68.80
83553;DHT22;73510;50.866;5.420;2024-03-06T01:05:46;7.50;68.70
83553;DHT22;73510;50.866;5.420;2024-03-06T01:08:12;7.40;68.70
83553;DHT22;73510;50.866;5.420;2024-03-06T01:10:38;7.40;68.30
83553;DHT22;73510;50.866;5.420;2024-03-06T01:13:04;7.30;68.60
83553;DHT22;73510;50.866;5.420;2024-03-06T01:15:30;7.20;68.70
83553;DHT22;73510;50.866;5.420;2024-03-06T01:17:56;7.20;69.00
83553;DHT22;73510;50.866;5.420;2024-03-06T01:20:23;7.10;69.20
83553;DHT22;73510;50.866;5.420;2024-03-06T01:22:48;7.10;69.50
83553;DHT22;73510;50.866;5.420;2024-03-06T01:25:14;7.00;69.30
83553;DHT22;73510;50.866;5.420;2024-03-06T01:27:40;7.00;69.40
83553;DHT22;73510;50.866;5.420;2024-03-06T01:30:06;6.90;69.30
83553;DHT22;73510;50.866;5.420;2024-03-06T01:32:32;6.90;69.00
83553;DHT22;73510;50.866;5.420;2024-03-06T01:34:58;6.90;69.00
83553;DHT22;73510;50.866;5.420;2024-03-06T01:37:24;6.80;68.90
83553;DHT22;73510;50.866;5.420;2024-03-06T01:39:50;6.80;68.90
83553;DHT22;73510;50.866;5.420;2024-03-06T01:42:17;6.80;68.70
83553;DHT22;73510;50.866;5.420;2024-03-06T01:44:43;6.70;68.50
83553;DHT22;73510;50.866;5.420;2024-03-06T01:47:09;6.70;68.70
83553;DHT22;73510;50.866;5.420;2024-03-06T01:49:35;6.60;68.40
83553;DHT22;73510;50.866;5.420;2024-03-06T01:52:01;6.60;68.50
83553;DHT22;73510;50.866;5.420;2024-03-06T01:54:27;6.50;68.50
83553;DHT22;73510;50.866;5.420;2024-03-06T01:56:54;6.50;68.50
83553;DHT22;73510;50.866;5.420;2024-03-06T01:59:21;6.40;68.40
83553;DHT22;73510;50.866;5.420;2024-03-06T02:01:53;6.40;68.30
83553;DHT22;73510;50.866;5.420;2024-03-06T02:04:19;6.40;68.40
83553;DHT22;73510;50.866;5.420;2024-03-06T02:06:46;6.30;68.40
83553;DHT22;73510;50.866;5.420;2024-03-06T02:09:13;6.30;68.50
83553;DHT22;73510;50.866;5.420;2024-03-06T02:11:39;6.30;68.70
83553;DHT22;73510;50.866;5.420;2024-03-06T02:14:05;6.30;68.70
83553;DHT22;73510;50.866;5.420;2024-03-06T02:16:36;6.30;68.60
83553;DHT22;73510;50.866;5.420;2024-03-06T02:19:01;6.20;68.90
83553;DHT22;73510;50.866;5.420;2024-03-06T02:21:28;6.20;68.80
83553;DHT22;73510;50.866;5.420;2024-03-06T02:23:53;6.20;68.70
83553;DHT22;73510;50.866;5.420;2024-03-06T02:26:20;6.10;68.50
83553;DHT22;73510;50.866;5.420;2024-03-06T02:28:48;6.10;68.50
83553;DHT22;73510;50.866;5.420;2024-03-06T02:31:15;6.10;68.60
83553;DHT22;73510;50.866;5.420;2024-03-06T02:33:41;6.10;68.40
83553;DHT22;73510;50.866;5.420;2024-03-06T02:36:07;6.00;68.60
83553;DHT22;73510;50.866;5.420;2024-03-06T02:38:32;6.00;68.50
83553;DHT22;73510;50.866;5.420;2024-03-06T02:40:58;6.00;68.40
83553;DHT22;73510;50.866;5.420;2024-03-06T02:43:24;6.00;68.60
83553;DHT22;73510;50.866;5.420;2024-03-06T02:45:50;5.90;68.60
83553;DHT22;73510;50.866;5.420;2024-03-06T02:48:16;5.90;68.70
83553;DHT22;73510;50.866;5.420;2024-03-06T02:50:42;5.90;68.40
83553;DHT22;73510;50.866;5.420;2024-03-06T02:53:08;5.80;68.60
83553;DHT22;73510;50.866;5.420;2024-03-06T02:55:33;5.80;68.50
83553;DHT22;73510;50.866;5.420;2024-03-06T02:58:02;5.80;68.50
83553;DHT22;73510;50.866;5.420;2024-03-06T03:00:28;5.80;68.40
83553;DHT22;73510;50.866;5.420;2024-03-06T03:02:53;5.70;68.60
83553;DHT22;73510;50.866;5.420;2024-03-06T03:05:19;5.70;68.60
83553;DHT22;73510;50.866;5.420;2024-03-06T03:07:45;5.70;68.70
83553;DHT22;73510;50.866;5.420;2024-03-06T03:10:11;5.70;68.90
83553;DHT22;73510;50.866;5.420;2024-03-06T03:12:40;5.60;68.80
83553;DHT22;73510;50.866;5.420;2024-03-06T03:15:06;5.60;68.70
83553;DHT22;73510;50.866;5.420;2024-03-06T03:17:32;5.60;68.60
83553;DHT22;73510;50.866;5.420;2024-03-06T03:19:59;5.50;68.70
83553;DHT22;73510;50.866;5.420;2024-03-06T03:22:25;5.50;68.70
83553;DHT22;73510;50.866;5.420;2024-03-06T03:24:51;5.50;68.60
83553;DHT22;73510;50.866;5.420;2024-03-06T03:27:17;5.50;68.60
83553;DHT22;73510;50.866;5.420;2024-03-06T03:29:43;5.50;68.50
83553;DHT22;73510;50.866;5.420;2024-03-06T03:32:09;5.50;68.80
83553;DHT22;73510;50.866;5.420;2024-03-06T03:34:35;5.40;68.80
83553;DHT22;73510;50.866;5.420;2024-03-06T03:37:01;5.40;68.70
83553;DHT22;73510;50.866;5.420;2024-03-06T03:39:26;5.30;68.80
83553;DHT22;73510;50.866;5.420;2024-03-06T03:41:53;5.30;68.70
83553;DHT22;73510;50.866;5.420;2024-03-06T03:44:18;5.30;68.80
83553;DHT22;73510;50.866;5.420;2024-03-06T03:46:45;5.30;68.60
83553;DHT22;73510;50.866;5.420;2024-03-06T03:49:11;5.30;68.60
83553;DHT22;73510;50.866;5.420;2024-03-06T03:51:38;5.20;68.70
83553;DHT22;73510;50.866;5.420;2024-03-06T03:54:04;5.20;68.50
83553;DHT22;73510;50.866;5.420;2024-03-06T03:56:30;5.20;68.50
83553;DHT22;73510;50.866;5.420;2024-03-06T03:58:56;5.10;68.50
83553;DHT22;73510;50.866;5.420;2024-03-06T04:01:23;5.10;68.40
83553;DHT22;73510;50.866;5.420;2024-03-06T04:03:48;5.10;68.20
83553;DHT22;73510;50.866;5.420;2024-03-06T04:06:15;5.00;68.00
83553;DHT22;73510;50.866;5.420;2024-03-06T04:08:40;5.00;68.20
83553;DHT22;73510;50.866;5.420;2024-03-06T04:11:06;5.00;68.30
83553;DHT22;73510;50.866;5.420;2024-03-06T04:13:36;5.00;68.20
83553;DHT22;73510;50.866;5.420;2024-03-06T04:16:01;4.90;68.30
83553;DHT22;73510;50.866;5.420;2024-03-06T04:18:29;4.90;68.30
83553;DHT22;73510;50.866;5.420;2024-03-06T04:20:54;4.90;68.20
83553;DHT22;73510;50.866;5.420;2024-03-06T04:23:20;4.90;68.20
83553;DHT22;73510;50.866;5.420;2024-03-06T04:25:46;4.80;68.40
83553;DHT22;73510;50.866;5.420;2024-03-06T04:28:11;4.80;68.20
83553;DHT22;73510;50.866;5.420;2024-03-06T04:30:38;4.70;68.10
83553;DHT22;73510;50.866;5.420;2024-03-06T04:33:04;4.70;68.20
83553;DHT22;73510;50.866;5.420;2024-03-06T04:35:29;4.70;68.30
83553;DHT22;73510;50.866;5.420;2024-03-06T04:37:56;4.70;68.50
83553;DHT22;73510;50.866;5.420;2024-03-06T04:40:23;4.70;68.30
83553;DHT22;73510;50.866;5.420;2024-03-06T04:42:50;4.70;68.10
83553;DHT22;73510;50.866;5.420;2024-03-06T04:45:17;4.60;68.40
83553;DHT22;73510;50.866;5.420;2024-03-06T04:47:43;4.60;68.40
83553;DHT22;73510;50.866;5.420;2024-03-06T04:50:12;4.60;68.40
83553;DHT22;73510;50.866;5.420;2024-03-06T04:52:40;4.50;68.30
83553;DHT22;73510;50.866;5.420;2024-03-06T04:55:07;4.50;68.30
83553;DHT22;73510;50.866;5.420;2024-03-06T04:57:34;4.50;68.40
83553;DHT22;73510;50.866;5.420;2024-03-06T05:00:00;4.50;68.50
83553;DHT22;73510;50.866;5.420;2024-03-06T05:02:28;4.50;68.50
83553;DHT22;73510;50.866;5.420;2024-03-06T05:04:53;4.40;68.50
83553;DHT22;73510;50.866;5.420;2024-03-06T05:07:19;4.40;68.50
83553;DHT22;73510;50.866;5.420;2024-03-06T05:09:45;4.40;68.40
83553;DHT22;73510;50.866;5.420;2024-03-06T05:12:11;4.40;68.40
83553;DHT22;73510;50.866;5.420;2024-03-06T05:14:36;4.40;68.30
83553;DHT22;73510;50.866;5.420;2024-03-06T05:17:02;4.30;68.40
83553;DHT22;73510;50.866;5.420;2024-03-06T05:19:28;4.30;68.40
83553;DHT22;73510;50.866;5.420;2024-03-06T05:21:58;4.30;68.50
83553;DHT22;73510;50.866;5.420;2024-03-06T05:24:24;4.30;68.90
83553;DHT22;73510;50.866;5.420;2024-03-06T05:26:50;4.30;68.70
83553;DHT22;73510;50.866;5.420;2024-03-06T05:29:16;4.20;68.60
83553;DHT22;73510;50.866;5.420;2024-03-06T05:31:42;4.20;68.50
83553;DHT22;73510;50.866;5.420;2024-03-06T05:34:07;4.20;68.40
83553;DHT22;73510;50.866;5.420;2024-03-06T05:36:33;4.20;68.50
83553;DHT22;73510;50.866;5.420;2024-03-06T05:38:59;4.20;68.50
83553;DHT22;73510;50.866;5.420;2024-03-06T05:41:25;4.20;68.40
83553;DHT22;73510;50.866;5.420;2024-03-06T05:43:50;4.20;68.40
83553;DHT22;73510;50.866;5.420;2024-03-06T05:46:16;4.20;68.40
83553;DHT22;73510;50.866;5.420;2024-03-06T05:48:44;4.10;68.40
83553;DHT22;73510;50.866;5.420;2024-03-06T05:51:10;4.10;68.40
83553;DHT22;73510;50.866;5.420;2024-03-06T05:53:37;4.10;68.60
83553;DHT22;73510;50.866;5.420;2024-03-06T05:56:05;4.10;68.20
83553;DHT22;73510;50.866;5.420;2024-03-06T05:58:31;4.10;68.30
83553;DHT22;73510;50.866;5.420;2024-03-06T06:00:57;4.10;68.40
83553;DHT22;73510;50.866;5.420;2024-03-06T06:03:23;4.10;68.40
83553;DHT22;73510;50.866;5.420;2024-03-06T06:05:48;4.10;68.60
83553;DHT22;73510;50.866;5.420;2024-03-06T06:08:14;4.10;68.60
83553;DHT22;73510;50.866;5.420;2024-03-06T06:10:40;4.00;68.60
83553;DHT22;73510;50.866;5.420;2024-03-06T06:13:06;4.10;68.70
83553;DHT22;73510;50.866;5.420;2024-03-06T06:15:31;4.10;68.60
83553;DHT22;73510;50.866;5.420;2024-03-06T06:17:58;4.00;68.60
83553;DHT22;73510;50.866;5.420;2024-03-06T06:20:23;4.00;68.70
83553;DHT22;73510;50.866;5.420;2024-03-06T06:22:49;4.00;68.50
83553;DHT22;73510;50.866;5.420;2024-03-06T06:25:15;4.00;68.60
83553;DHT22;73510;50.866;5.420;2024-03-06T06:27:41;4.00;68.50
83553;DHT22;73510;50.866;5.420;2024-03-06T06:30:08;4.00;68.60
83553;DHT22;73510;50.866;5.420;2024-03-06T06:32:40;4.00;68.60
83553;DHT22;73510;50.866;5.420;2024-03-06T06:35:06;4.00;68.50
83553;DHT22;73510;50.866;5.420;2024-03-06T06:37:32;4.10;68.70
83553;DHT22;73510;50.866;5.420;2024-03-06T06:39:59;4.10;68.60
83553;DHT22;73510;50.866;5.420;2024-03-06T06:42:25;4.10;68.60
83553;DHT22;73510;50.866;5.420;2024-03-06T06:44:51;4.10;68.60
83553;DHT22;73510;50.866;5.420;2024-03-06T06:47:17;4.10;68.70
83553;DHT22;73510;50.866;5.420;2024-03-06T06:49:43;4.10;68.70
83553;DHT22;73510;50.866;5.420;2024-03-06T06:52:10;4.10;68.70
83553;DHT22;73510;50.866;5.420;2024-03-06T06:54:35;4.10;68.90
83553;DHT22;73510;50.866;5.420;2024-03-06T06:57:01;4.30;69.10
83553;DHT22;73510;50.866;5.420;2024-03-06T06:59:28;4.50;69.00
83553;DHT22;73510;50.866;5.420;2024-03-06T07:01:54;4.60;69.00
83553;DHT22;73510;50.866;5.420;2024-03-06T07:04:20;4.70;68.70
83553;DHT22;73510;50.866;5.420;2024-03-06T07:06:46;4.90;68.40
83553;DHT22;73510;50.866;5.420;2024-03-06T07:09:12;5.00;67.70
83553;DHT22;73510;50.866;5.420;2024-03-06T07:11:41;5.30;67.50
83553;DHT22;73510;50.866;5.420;2024-03-06T07:14:08;5.80;67.50
83553;DHT22;73510;50.866;5.420;2024-03-06T07:16:33;6.30;66.30
83553;DHT22;73510;50.866;5.420;2024-03-06T07:18:59;7.40;65.50
83553;DHT22;73510;50.866;5.420;2024-03-06T07:21:25;8.60;63.20
83553;DHT22;73510;50.866;5.420;2024-03-06T07:23:51;9.60;60.70
83553;DHT22;73510;50.866;5.420;2024-03-06T07:26:17;10.60;59.10
83553;DHT22;73510;50.866;5.420;2024-03-06T07:28:43;11.50;57.70
83553;DHT22;73510;50.866;5.420;2024-03-06T07:31:08;12.50;55.70
83553;DHT22;73510;50.866;5.420;2024-03-06T07:33:34;13.50;54.70
83553;DHT22;73510;50.866;5.420;2024-03-06T07:36:03;14.30;53.50
83553;DHT22;73510;50.866;5.420;2024-03-06T07:38:29;15.10;52.20
83553;DHT22;73510;50.866;5.420;2024-03-06T07:40:54;15.80;51.50
83553;DHT22;73510;50.866;5.420;2024-03-06T07:43:20;16.40;50.70
83553;DHT22;73510;50.866;5.420;2024-03-06T07:45:46;17.00;50.30
83553;DHT22;73510;50.866;5.420;2024-03-06T07:48:13;17.70;49.60
83553;DHT22;73510;50.866;5.420;2024-03-06T07:50:38;18.30;49.10
83553;DHT22;73510;50.866;5.420;2024-03-06T07:53:05;18.90;48.20
83553;DHT22;73510;50.866;5.420;2024-03-06T07:55:31;19.50;47.60
83553;DHT22;73510;50.866;5.420;2024-03-06T07:57:56;20.00;47.30
83553;DHT22;73510;50.866;5.420;2024-03-06T08:00:23;20.50;46.10
83553;DHT22;73510;50.866;5.420;2024-03-06T08:02:48;20.90;45.10
83553;DHT22;73510;50.866;5.420;2024-03-06T08:05:16;21.30;44.00
83553;DHT22;73510;50.866;5.420;2024-03-06T08:07:42;21.50;43.60
83553;DHT22;73510;50.866;5.420;2024-03-06T08:10:09;21.90;42.80
83553;DHT22;73510;50.866;5.420;2024-03-06T08:12:39;22.00;43.00
83553;DHT22;73510;50.866;5.420;2024-03-06T08:15:06;22.30;43.20
83553;DHT22;73510;50.866;5.420;2024-03-06T08:17:35;22.60;42.30
83553;DHT22;73510;50.866;5.420;2024-03-06T08:20:01;22.70;42.50
83553;DHT22;73510;50.866;5.420;2024-03-06T08:22:27;23.00;42.10
83553;DHT22;73510;50.866;5.420;2024-03-06T08:24:53;23.00;41.60
83553;DHT22;73510;50.866;5.420;2024-03-06T08:27:18;23.10;41.60
83553;DHT22;73510;50.866;5.420;2024-03-06T08:29:44;23.20;43.10
83553;DHT22;73510;50.866;5.420;2024-03-06T08:32:10;23.50;42.20
83553;DHT22;73510;50.866;5.420;2024-03-06T08:34:35;23.80;40.90
83553;DHT22;73510;50.866;5.420;2024-03-06T08:37:02;23.70;41.60
83553;DHT22;73510;50.866;5.420;2024-03-06T08:39:27;24.00;41.30
83553;DHT22;73510;50.866;5.420;2024-03-06T08:41:54;24.20;41.20
83553;DHT22;73510;50.866;5.420;2024-03-06T08:44:20;24.40;41.20
83553;DHT22;73510;50.866;5.420;2024-03-06T08:46:45;24.80;40.80
83553;DHT22;73510;50.866;5.420;2024-03-06T08:49:11;25.00;40.30
83553;DHT22;73510;50.866;5.420;2024-03-06T08:51:37;25.00;41.10
83553;DHT22;73510;50.866;5.420;2024-03-06T08:54:03;25.30;40.40
83553;DHT22;73510;50.866;5.420;2024-03-06T08:56:28;25.50;40.00
83553;DHT22;73510;50.866;5.420;2024-03-06T08:58:54;25.50;39.70
83553;DHT22;73510;50.866;5.420;2024-03-06T09:01:19;25.60;40.00
83553;DHT22;73510;50.866;5.420;2024-03-06T09:03:45;25.80;40.80
83553;DHT22;73510;50.866;5.420;2024-03-06T09:06:11;26.10;40.40
83553;DHT22;73510;50.866;5.420;2024-03-06T09:08:38;26.60;39.60
83553;DHT22;73510;50.866;5.420;2024-03-06T09:11:03;27.10;39.30
83553;DHT22;73510;50.866;5.420;2024-03-06T09:13:29;27.30;38.40
83553;DHT22;73510;50.866;5.420;2024-03-06T09:15:55;27.50;39.00
83553;DHT22;73510;50.866;5.420;2024-03-06T09:18:20;27.80;38.80
83553;DHT22;73510;50.866;5.420;2024-03-06T09:20:46;28.00;38.60
83553;DHT22;73510;50.866;5.420;2024-03-06T09:23:12;28.30;38.50
83553;DHT22;73510;50.866;5.420;2024-03-06T09:25:38;28.60;37.70
83553;DHT22;73510;50.866;5.420;2024-03-06T09:28:04;28.80;38.10
83553;DHT22;73510;50.866;5.420;2024-03-06T09:30:30;28.90;38.20
83553;DHT22;73510;50.866;5.420;2024-03-06T09:32:56;29.10;38.00
83553;DHT22;73510;50.866;5.420;2024-03-06T09:35:22;29.40;37.30
83553;DHT22;73510;50.866;5.420;2024-03-06T09:37:47;29.70;37.30
83553;DHT22;73510;50.866;5.420;2024-03-06T09:40:23;29.90;37.00
83553;DHT22;73510;50.866;5.420;2024-03-06T09:42:50;30.00;36.90
83553;DHT22;73510;50.866;5.420;2024-03-06T09:45:16;30.10;36.90
83553;DHT22;73510;50.866;5.420;2024-03-06T09:47:43;30.30;36.90
83553;DHT22;73510;50.866;5.420;2024-03-06T09:50:10;30.60;36.20
83553;DHT22;73510;50.866;5.420;2024-03-06T09:52:36;30.70;35.70
83553;DHT22;73510;50.866;5.420;2024-03-06T09:55:02;30.70;35.70
83553;DHT22;73510;50.866;5.420;2024-03-06T09:57:29;30.80;36.30
83553;DHT22;73510;50.866;5.420;2024-03-06T09:59:56;31.00;36.30
83553;DHT22;73510;50.866;5.420;2024-03-06T10:02:32;31.20;35.70
83553;DHT22;73510;50.866;5.420;2024-03-06T10:05:00;31.30;36.10
83553;DHT22;73510;50.866;5.420;2024-03-06T10:07:26;31.50;35.90
83553;DHT22;73510;50.866;5.420;2024-03-06T10:09:52;31.60;35.70
83553;DHT22;73510;50.866;5.420;2024-03-06T10:12:18;31.80;35.10
83553;DHT22;73510;50.866;5.420;2024-03-06T10:14:51;31.90;35.40
83553;DHT22;73510;50.866;5.420;2024-03-06T10:17:20;31.90;35.10
83553;DHT22;73510;50.866;5.420;2024-03-06T10:19:49;31.80;35.30
83553;DHT22;73510;50.866;5.420;2024-03-06T10:22:19;31.90;35.10
83553;DHT22;73510;50.866;5.420;2024-03-06T10:24:46;32.00;35.30
83553;DHT22;73510;50.866;5.420;2024-03-06T10:27:15;32.20;35.30
83553;DHT22;73510;50.866;5.420;2024-03-06T10:29:45;32.10;34.60
83553;DHT22;73510;50.866;5.420;2024-03-06T10:32:10;31.90;34.30
83553;DHT22;73510;50.866;5.420;2024-03-06T10:34:44;31.70;34.90
83553;DHT22;73510;50.866;5.420;2024-03-06T10:37:10;31.90;35.10
83553;DHT22;73510;50.866;5.420;2024-03-06T10:39:40;32.00;34.40
83553;DHT22;73510;50.866;5.420;2024-03-06T10:42:07;31.80;34.90
83553;DHT22;73510;50.866;5.420;2024-03-06T10:44:34;31.30;35.00
83553;DHT22;73510;50.866;5.420;2024-03-06T10:47:05;30.60;35.80
83553;DHT22;73510;50.866;5.420;2024-03-06T10:49:31;30.40;35.40
83553;DHT22;73510;50.866;5.420;2024-03-06T10:52:01;30.60;35.70
83553;DHT22;73510;50.866;5.420;2024-03-06T10:54:29;30.60;36.40
83553;DHT22;73510;50.866;5.420;2024-03-06T10:56:55;29.90;36.10
83553;DHT22;73510;50.866;5.420;2024-03-06T10:59:24;28.90;37.20
83553;DHT22;73510;50.866;5.420;2024-03-06T11:01:55;27.80;37.70
83553;DHT22;73510;50.866;5.420;2024-03-06T11:04:24;26.90;38.70
83553;DHT22;73510;50.866;5.420;2024-03-06T11:06:50;26.00;38.70
83553;DHT22;73510;50.866;5.420;2024-03-06T11:09:17;25.30;39.20
83553;DHT22;73510;50.866;5.420;2024-03-06T11:11:53;24.70;40.00
83553;DHT22;73510;50.866;5.420;2024-03-06T11:14:21;24.20;39.80
83553;DHT22;73510;50.866;5.420;2024-03-06T11:17:04;23.60;40.50
83553;DHT22;73510;50.866;5.420;2024-03-06T11:19:31;23.20;40.20
83553;DHT22;73510;50.866;5.420;2024-03-06T11:21:57;22.70;40.70
83553;DHT22;73510;50.866;5.420;2024-03-06T11:24:31;22.30;41.10
83553;DHT22;73510;50.866;5.420;2024-03-06T11:27:00;21.90;41.60
83553;DHT22;73510;50.866;5.420;2024-03-06T11:29:32;21.40;42.10
83553;DHT22;73510;50.866;5.420;2024-03-06T11:32:16;21.10;42.20
83553;DHT22;73510;50.866;5.420;2024-03-06T11:34:43;20.90;43.50
83553;DHT22;73510;50.866;5.420;2024-03-06T11:37:08;20.80;43.00
83553;DHT22;73510;50.866;5.420;2024-03-06T11:39:38;20.60;43.10
83553;DHT22;73510;50.866;5.420;2024-03-06T11:42:06;20.60;42.80
83553;DHT22;73510;50.866;5.420;2024-03-06T11:44:34;20.50;44.00
83553;DHT22;73510;50.866;5.420;2024-03-06T11:47:02;20.50;44.40
83553;DHT22;73510;50.866;5.420;2024-03-06T11:49:30;20.40;44.00
83553;DHT22;73510;50.866;5.420;2024-03-06T11:52:04;20.30;44.20
83553;DHT22;73510;50.866;5.420;2024-03-06T11:54:39;20.30;42.80
83553;DHT22;73510;50.866;5.420;2024-03-06T11:57:05;20.10;43.30
83553;DHT22;73510;50.866;5.420;2024-03-06T11:59:33;20.00;44.20
83553;DHT22;73510;50.866;5.420;2024-03-06T12:02:01;20.00;44.90
83553;DHT22;73510;50.866;5.420;2024-03-06T12:04:35;20.00;44.50
83553;DHT22;73510;50.866;5.420;2024-03-06T12:07:04;19.90;44.10
83553;DHT22;73510;50.866;5.420;2024-03-06T12:09:35;19.90;44.40
83553;DHT22;73510;50.866;5.420;2024-03-06T12:12:01;19.90;44.20
83553;DHT22;73510;50.866;5.420;2024-03-06T12:14:29;19.70;44.30
83553;DHT22;73510;50.866;5.420;2024-03-06T12:16:58;19.70;43.70
83553;DHT22;73510;50.866;5.420;2024-03-06T12:19:28;19.50;43.10
83553;DHT22;73510;50.866;5.420;2024-03-06T12:21:54;19.40;43.80
83553;DHT22;73510;50.866;5.420;2024-03-06T12:24:20;19.20;44.00
83553;DHT22;73510;50.866;5.420;2024-03-06T12:26:46;18.80;44.70
83553;DHT22;73510;50.866;5.420;2024-03-06T12:29:18;18.60;44.50
83553;DHT22;73510;50.866;5.420;2024-03-06T12:31:47;18.30;45.10
83553;DHT22;73510;50.866;5.420;2024-03-06T12:34:15;18.20;44.50
83553;DHT22;73510;50.866;5.420;2024-03-06T12:36:44;18.10;44.80
83553;DHT22;73510;50.866;5.420;2024-03-06T12:39:10;18.00;45.20
83553;DHT22;73510;50.866;5.420;2024-03-06T12:41:41;17.80;45.00
83553;DHT22;73510;50.866;5.420;2024-03-06T12:44:07;17.80;45.50
83553;DHT22;73510;50.866;5.420;2024-03-06T12:46:34;17.70;47.10
83553;DHT22;73510;50.866;5.420;2024-03-06T12:49:00;17.60;46.50
83553;DHT22;73510;50.866;5.420;2024-03-06T12:51:25;17.60;44.90
83553;DHT22;73510;50.866;5.420;2024-03-06T12:53:51;17.50;44.90
83553;DHT22;73510;50.866;5.420;2024-03-06T12:56:18;17.40;44.90
83553;DHT22;73510;50.866;5.420;2024-03-06T12:58:44;17.40;45.40
83553;DHT22;73510;50.866;5.420;2024-03-06T13:01:10;17.30;45.20
83553;DHT22;73510;50.866;5.420;2024-03-06T13:03:36;17.20;45.10
83553;DHT22;73510;50.866;5.420;2024-03-06T13:06:03;17.30;46.50
83553;DHT22;73510;50.866;5.420;2024-03-06T13:08:29;17.40;45.60
83553;DHT22;73510;50.866;5.420;2024-03-06T13:10:56;17.50;44.50
83553;DHT22;73510;50.866;5.420;2024-03-06T13:13:22;17.40;45.00
83553;DHT22;73510;50.866;5.420;2024-03-06T13:15:51;17.30;46.50
83553;DHT22;73510;50.866;5.420;2024-03-06T13:18:17;17.20;46.90
83553;DHT22;73510;50.866;5.420;2024-03-06T13:20:44;17.20;46.50
83553;DHT22;73510;50.866;5.420;2024-03-06T13:23:10;17.20;46.70
83553;DHT22;73510;50.866;5.420;2024-03-06T13:25:36;17.20;46.20
83553;DHT22;73510;50.866;5.420;2024-03-06T13:28:03;17.20;46.50
83553;DHT22;73510;50.866;5.420;2024-03-06T13:30:30;17.20;46.70
83553;DHT22;73510;50.866;5.420;2024-03-06T13:32:56;17.20;45.90
83553;DHT22;73510;50.866;5.420;2024-03-06T13:35:22;17.20;45.80
83553;DHT22;73510;50.866;5.420;2024-03-06T13:37:47;17.20;45.20
83553;DHT22;73510;50.866;5.420;2024-03-06T13:40:15;17.20;45.60
83553;DHT22;73510;50.866;5.420;2024-03-06T13:42:41;17.10;45.70
83553;DHT22;73510;50.866;5.420;2024-03-06T13:45:08;17.00;45.40
83553;DHT22;73510;50.866;5.420;2024-03-06T13:47:43;17.00;45.60
83553;DHT22;73510;50.866;5.420;2024-03-06T13:50:11;16.90;45.20
83553;DHT22;73510;50.866;5.420;2024-03-06T13:52:37;16.70;45.70
83553;DHT22;73510;50.866;5.420;2024-03-06T13:55:03;16.60;46.90
83553;DHT22;73510;50.866;5.420;2024-03-06T13:57:35;16.60;47.20
83553;DHT22;73510;50.866;5.420;2024-03-06T14:00:02;16.60;46.60
83553;DHT22;73510;50.866;5.420;2024-03-06T14:02:30;16.60;47.00
83553;DHT22;73510;50.866;5.420;2024-03-06T14:04:56;16.60;47.30
83553;DHT22;73510;50.866;5.420;2024-03-06T14:07:23;16.60;47.40
83553;DHT22;73510;50.866;5.420;2024-03-06T14:09:50;16.60;47.20
83553;DHT22;73510;50.866;5.420;2024-03-06T14:12:16;16.70;47.00
83553;DHT22;73510;50.866;5.420;2024-03-06T14:14:41;16.70;47.60
83553;DHT22;73510;50.866;5.420;2024-03-06T14:17:07;16.70;47.60
83553;DHT22;73510;50.866;5.420;2024-03-06T14:19:33;16.80;47.30
83553;DHT22;73510;50.866;5.420;2024-03-06T14:21:59;16.80;47.30
83553;DHT22;73510;50.866;5.420;2024-03-06T14:24:24;16.70;47.50
83553;DHT22;73510;50.866;5.420;2024-03-06T14:26:50;16.80;47.60
83553;DHT22;73510;50.866;5.420;2024-03-06T14:29:16;16.80;48.20
83553;DHT22;73510;50.866;5.420;2024-03-06T14:31:42;16.70;47.70
83553;DHT22;73510;50.866;5.420;2024-03-06T14:34:07;16.70;47.20
83553;DHT22;73510;50.866;5.420;2024-03-06T14:36:33;16.70;47.90
83553;DHT22;73510;50.866;5.420;2024-03-06T14:39:00;16.70;47.70
83553;DHT22;73510;50.866;5.420;2024-03-06T14:41:25;16.70;48.00
83553;DHT22;73510;50.866;5.420;2024-03-06T14:43:51;16.70;47.00
83553;DHT22;73510;50.866;5.420;2024-03-06T14:46:17;16.60;48.10
83553;DHT22;73510;50.866;5.420;2024-03-06T14:48:44;16.50;47.70
83553;DHT22;73510;50.866;5.420;2024-03-06T14:51:10;16.40;47.60
83553;DHT22;73510;50.866;5.420;2024-03-06T14:53:35;16.20;47.90
83553;DHT22;73510;50.866;5.420;2024-03-06T14:56:02;16.10;48.80
83553;DHT22;73510;50.866;5.420;2024-03-06T14:58:28;16.00;48.40
83553;DHT22;73510;50.866;5.420;2024-03-06T15:00:54;15.80;48.30
83553;DHT22;73510;50.866;5.420;2024-03-06T15:03:19;15.80;48.30
83553;DHT22;73510;50.866;5.420;2024-03-06T15:05:45;15.60;48.20
83553;DHT22;73510;50.866;5.420;2024-03-06T15:08:11;15.50;48.50
83553;DHT22;73510;50.866;5.420;2024-03-06T15:10:38;15.40;48.80
83553;DHT22;73510;50.866;5.420;2024-03-06T15:13:04;15.30;49.00
83553;DHT22;73510;50.866;5.420;2024-03-06T15:15:30;15.20;49.60
83553;DHT22;73510;50.866;5.420;2024-03-06T15:17:57;15.20;49.10
83553;DHT22;73510;50.866;5.420;2024-03-06T15:20:23;15.10;49.00
83553;DHT22;73510;50.866;5.420;2024-03-06T15:22:48;15.10;49.40
83553;DHT22;73510;50.866;5.420;2024-03-06T15:25:15;15.10;48.80
83553;DHT22;73510;50.866;5.420;2024-03-06T15:27:42;15.00;49.20
83553;DHT22;73510;50.866;5.420;2024-03-06T15:30:09;15.00;48.70
83553;DHT22;73510;50.866;5.420;2024-03-06T15:32:35;15.00;49.20
83553;DHT22;73510;50.866;5.420;2024-03-06T15:35:01;15.00;48.70